Maersk Nairobi — 9V5824 — position and weather

sailwx.info

Track history (hours):
 
Tides and Currents Weather Stations Pressure Air Temp Water Temp Dewpoint Dewpoint Depression Visibility Wind Speed Wind Dir Waves Ship Positions

Maersk Nairobi

Last reported at 2018-Feb-17 01:39 UTC. Time now 2018-Feb-21 15:37 UTC.
Position N 36°15' E 014°52'.

Length 210 m; draft 9.6 m.

Type: Ship (hazmat cat B). MMSI: 563044300.

Date/timePositionNaut miles runAvg speedWind from/ knotsBaromVisibWave heightAir tempDewpointWater temp
2018-Feb-17 01:39N 36°15' E 014°52'215.7
2018-Feb-17 01:30N 36°16' E 014°50'815.8
2018-Feb-17 01:00N 36°19' E 014°40'816.0
2018-Feb-17 00:30N 36°22' E 014°31'815.9
2018-Feb-17 00:00N 36°26' E 014°23'815.7
2018-Feb-16 23:30N 36°29' E 014°14'815.5
2018-Feb-16 22:59N 36°33' E 014°05'1115.9
2018-Feb-16 22:17N 36°40' E 013°54'416.1
2018-Feb-16 22:01N 36°42' E 013°49'916.1
2018-Feb-16 21:26N 36°47' E 013°39'716.8
2018-Feb-16 21:00N 36°50' E 013°31'57016.0
2018-Feb-15 09:24N 41°06' E 002°36'717.0
2018-Feb-15 09:00N 41°10' E 002°28'816.9
2018-Feb-15 08:30N 41°13' E 002°18'815.5
2018-Feb-15 08:00N 41°18' E 002°10'1 2.0
2018-Feb-15 07:30N 41°19' E 002°09'0 0.0
2018-Feb-15 07:00N 41°19' E 002°09'0 0.0
2018-Feb-15 06:25N 41°19' E 002°09'0 0.0
2018-Feb-15 06:01N 41°19' E 002°09'0 0.0
2018-Feb-15 05:31N 41°19' E 002°09'0 0.0
2018-Feb-15 05:01N 41°19' E 002°09'0 0.0
2018-Feb-15 04:31N 41°19' E 002°09'0 0.0
2018-Feb-15 04:01N 41°19' E 002°09'0 0.0
2018-Feb-15 03:29N 41°19' E 002°09'0 0.0
2018-Feb-15 02:59N 41°19' E 002°09'0 0.0
2018-Feb-15 02:29N 41°19' E 002°09'0 0.0
2018-Feb-15 01:59N 41°19' E 002°09'0 0.0
2018-Feb-15 01:29N 41°19' E 002°09'0 0.0
2018-Feb-15 00:59N 41°19' E 002°09'0 0.0
2018-Feb-15 00:29N 41°19' E 002°09'0 0.0
2018-Feb-14 23:59N 41°19' E 002°09'0 0.0
2018-Feb-14 23:29N 41°19' E 002°09'0 0.0
2018-Feb-14 22:59N 41°19' E 002°09'0 0.0
2018-Feb-14 22:29N 41°19' E 002°09'0 0.0
2018-Feb-14 21:59N 41°19' E 002°09'0 0.0
2018-Feb-14 21:29N 41°19' E 002°09'0 0.0
2018-Feb-14 20:59N 41°19' E 002°09'0 0.0
2018-Feb-14 20:29N 41°19' E 002°09'0 0.0
2018-Feb-14 19:59N 41°19' E 002°09'0 0.0
2018-Feb-14 19:29N 41°19' E 002°09'0 0.0
2018-Feb-14 18:59N 41°19' E 002°09'0 0.0
2018-Feb-14 18:29N 41°19' E 002°09'0 0.0
2018-Feb-14 17:59N 41°19' E 002°09'0 0.0
2018-Feb-14 17:31N 41°19' E 002°09'2 3.0
2018-Feb-14 17:00N 41°18' E 002°11'510.3
2018-Feb-14 16:30N 41°13' E 002°09'714.7
2018-Feb-14 16:00N 41°08' E 002°02'713.9
2018-Feb-14 15:29N 41°02' E 001°56'5 9.9
2018-Feb-14 15:00N 40°58' E 001°52'5 8.9
2018-Feb-14 14:24N 40°54' E 001°47'  
2018-Feb-12 08:48N 39°33' W 000°08'2 6.7
2018-Feb-12 08:30N 39°31' W 000°10'4 6.7
2018-Feb-12 07:50N 39°28' W 000°13'3 6.4
2018-Feb-12 07:20N 39°26' W 000°17'2 6.1
2018-Feb-12 07:00N 39°27' W 000°19'1 1.4
2018-Feb-12 06:28N 39°27' W 000°19'0 0.0
2018-Feb-12 05:58N 39°27' W 000°19'0 0.0
2018-Feb-12 05:28N 39°27' W 000°19'0 0.0
2018-Feb-12 04:58N 39°27' W 000°19'0 0.0
2018-Feb-12 04:28N 39°27' W 000°19'0 0.0
2018-Feb-12 03:58N 39°27' W 000°19'0 0.0
2018-Feb-12 03:28N 39°27' W 000°19'0 0.0
2018-Feb-12 02:58N 39°27' W 000°19'0 0.0
2018-Feb-12 02:28N 39°27' W 000°19'0 0.0
2018-Feb-12 01:58N 39°27' W 000°19'0 0.0
2018-Feb-12 01:28N 39°27' W 000°19'0 0.0
2018-Feb-12 00:58N 39°27' W 000°19'0 0.0
2018-Feb-12 00:28N 39°27' W 000°19'0 0.0
2018-Feb-11 23:58N 39°27' W 000°19'0 0.2
2018-Feb-11 23:30N 39°27' W 000°19'4 7.7
2018-Feb-11 23:00N 39°25' W 000°15'102 9.5
2018-Feb-11 12:16N 37°43' W 000°22'612.3
2018-Feb-11 11:45N 37°38' W 000°27'312.3
2018-Feb-11 11:30N 37°35' W 000°29'612.1
2018-Feb-11 11:00N 37°31' W 000°34'612.1
2018-Feb-11 10:30N 37°27' W 000°40'612.4
2018-Feb-11 10:00N 37°23' W 000°46'612.4
2018-Feb-11 09:30N 37°19' W 000°52'712.4
2018-Feb-11 08:57N 37°14' W 000°58'21211.4
2018-Feb-10 14:23N 36°05' W 005°08'512.8
2018-Feb-10 14:01N 36°05' W 005°14'612.4
2018-Feb-10 13:30N 36°05' W 005°22'5 9.8
2018-Feb-10 13:01N 36°09' W 005°26'0 0.4
2018-Feb-10 12:12N 36°09' W 005°26'0 0.0
2018-Feb-10 11:58N 36°09' W 005°26'0 0.0
2018-Feb-10 11:25N 36°09' W 005°26'0 0.0
2018-Feb-10 08:30N 36°09' W 005°26'0 0.0
2018-Feb-10 07:34N 36°09' W 005°26'0 1.1
2018-Feb-10 07:30N 36°09' W 005°26'1 1.0
2018-Feb-10 07:00N 36°08' W 005°26'0 0.0
2018-Feb-10 06:30N 36°08' W 005°26'0 0.0
2018-Feb-10 05:59N 36°08' W 005°26'0 0.0
2018-Feb-10 05:29N 36°08' W 005°26'0 0.0
2018-Feb-10 04:59N 36°08' W 005°26'0 0.0
2018-Feb-10 04:29N 36°08' W 005°26'0 0.0
2018-Feb-10 03:59N 36°08' W 005°26'0 0.0
2018-Feb-10 03:29N 36°08' W 005°26'0 0.0
2018-Feb-10 02:59N 36°08' W 005°26'0 0.0
2018-Feb-10 02:26N 36°08' W 005°26'0 0.0
2018-Feb-10 01:59N 36°08' W 005°26'0 0.0
2018-Feb-10 01:29N 36°08' W 005°26'0 0.4
2018-Feb-10 01:00N 36°08' W 005°26'2 4.4
2018-Feb-10 00:30N 36°08' W 005°23'3 5.8
2018-Feb-10 00:00N 36°05' W 005°22'5 9.1
2018-Feb-09 23:30N 36°03' W 005°17'0 0.8
2018-Feb-09 23:00N 36°03' W 005°17'0 1.7
2018-Feb-09 22:46N 36°03' W 005°17'2 5.8
2018-Feb-09 22:30N 36°01' W 005°18'4 8.6
2018-Feb-09 22:00N 35°59' W 005°23'  
Track history (hours):
 
Tides and Currents Weather Stations Pressure Air Temp Water Temp Dewpoint Dewpoint Depression Visibility Wind Speed Wind Dir Waves Ship Positions

Maersk Nairobi

Last reported at 2018-Feb-17 01:39 UTC. Time now 2018-Feb-21 15:37 UTC.
Position N 36°15' E 014°52'.

Length 210 m; draft 9.6 m.

Type: Ship (hazmat cat B). MMSI: 563044300.

Date/timePositionNaut miles runAvg speedWind from/ knotsBaromVisibWave heightAir tempDewpointWater temp
2018-Feb-17 01:39N 36°15' E 014°52'215.7
2018-Feb-17 01:30N 36°16' E 014°50'815.8
2018-Feb-17 01:00N 36°19' E 014°40'816.0
2018-Feb-17 00:30N 36°22' E 014°31'815.9
2018-Feb-17 00:00N 36°26' E 014°23'815.7
2018-Feb-16 23:30N 36°29' E 014°14'815.5
2018-Feb-16 22:59N 36°33' E 014°05'1115.9
2018-Feb-16 22:17N 36°40' E 013°54'416.1
2018-Feb-16 22:01N 36°42' E 013°49'916.1
2018-Feb-16 21:26N 36°47' E 013°39'716.8
2018-Feb-16 21:00N 36°50' E 013°31'57016.0
2018-Feb-15 09:24N 41°06' E 002°36'717.0
2018-Feb-15 09:00N 41°10' E 002°28'816.9
2018-Feb-15 08:30N 41°13' E 002°18'815.5
2018-Feb-15 08:00N 41°18' E 002°10'1 2.0
2018-Feb-15 07:30N 41°19' E 002°09'0 0.0
2018-Feb-15 07:00N 41°19' E 002°09'0 0.0
2018-Feb-15 06:25N 41°19' E 002°09'0 0.0
2018-Feb-15 06:01N 41°19' E 002°09'0 0.0
2018-Feb-15 05:31N 41°19' E 002°09'0 0.0
2018-Feb-15 05:01N 41°19' E 002°09'0 0.0
2018-Feb-15 04:31N 41°19' E 002°09'0 0.0
2018-Feb-15 04:01N 41°19' E 002°09'0 0.0
2018-Feb-15 03:29N 41°19' E 002°09'0 0.0
2018-Feb-15 02:59N 41°19' E 002°09'0 0.0
2018-Feb-15 02:29N 41°19' E 002°09'0 0.0
2018-Feb-15 01:59N 41°19' E 002°09'0 0.0
2018-Feb-15 01:29N 41°19' E 002°09'0 0.0
2018-Feb-15 00:59N 41°19' E 002°09'0 0.0
2018-Feb-15 00:29N 41°19' E 002°09'0 0.0
2018-Feb-14 23:59N 41°19' E 002°09'0 0.0
2018-Feb-14 23:29N 41°19' E 002°09'0 0.0
2018-Feb-14 22:59N 41°19' E 002°09'0 0.0
2018-Feb-14 22:29N 41°19' E 002°09'0 0.0
2018-Feb-14 21:59N 41°19' E 002°09'0 0.0
2018-Feb-14 21:29N 41°19' E 002°09'0 0.0
2018-Feb-14 20:59N 41°19' E 002°09'0 0.0
2018-Feb-14 20:29N 41°19' E 002°09'0 0.0
2018-Feb-14 19:59N 41°19' E 002°09'0 0.0
2018-Feb-14 19:29N 41°19' E 002°09'0 0.0
2018-Feb-14 18:59N 41°19' E 002°09'0 0.0
2018-Feb-14 18:29N 41°19' E 002°09'0 0.0
2018-Feb-14 17:59N 41°19' E 002°09'0 0.0
2018-Feb-14 17:31N 41°19' E 002°09'2 3.0
2018-Feb-14 17:00N 41°18' E 002°11'510.3
2018-Feb-14 16:30N 41°13' E 002°09'714.7
2018-Feb-14 16:00N 41°08' E 002°02'713.9
2018-Feb-14 15:29N 41°02' E 001°56'5 9.9
2018-Feb-14 15:00N 40°58' E 001°52'5 8.9
2018-Feb-14 14:24N 40°54' E 001°47'  
2018-Feb-12 08:48N 39°33' W 000°08'2 6.7
2018-Feb-12 08:30N 39°31' W 000°10'4 6.7
2018-Feb-12 07:50N 39°28' W 000°13'3 6.4
2018-Feb-12 07:20N 39°26' W 000°17'2 6.1
2018-Feb-12 07:00N 39°27' W 000°19'1 1.4
2018-Feb-12 06:28N 39°27' W 000°19'0 0.0
2018-Feb-12 05:58N 39°27' W 000°19'0 0.0
2018-Feb-12 05:28N 39°27' W 000°19'0 0.0
2018-Feb-12 04:58N 39°27' W 000°19'0 0.0
2018-Feb-12 04:28N 39°27' W 000°19'0 0.0
2018-Feb-12 03:58N 39°27' W 000°19'0 0.0
2018-Feb-12 03:28N 39°27' W 000°19'0 0.0
2018-Feb-12 02:58N 39°27' W 000°19'0 0.0
2018-Feb-12 02:28N 39°27' W 000°19'0 0.0
2018-Feb-12 01:58N 39°27' W 000°19'0 0.0
2018-Feb-12 01:28N 39°27' W 000°19'0 0.0
2018-Feb-12 00:58N 39°27' W 000°19'0 0.0
2018-Feb-12 00:28N 39°27' W 000°19'0 0.0
2018-Feb-11 23:58N 39°27' W 000°19'0 0.2
2018-Feb-11 23:30N 39°27' W 000°19'4 7.7
2018-Feb-11 23:00N 39°25' W 000°15'102 9.5
2018-Feb-11 12:16N 37°43' W 000°22'612.3
2018-Feb-11 11:45N 37°38' W 000°27'312.3
2018-Feb-11 11:30N 37°35' W 000°29'612.1
2018-Feb-11 11:00N 37°31' W 000°34'612.1
2018-Feb-11 10:30N 37°27' W 000°40'612.4
2018-Feb-11 10:00N 37°23' W 000°46'612.4
2018-Feb-11 09:30N 37°19' W 000°52'712.4
2018-Feb-11 08:57N 37°14' W 000°58'21211.4
2018-Feb-10 14:23N 36°05' W 005°08'512.8
2018-Feb-10 14:01N 36°05' W 005°14'612.4
2018-Feb-10 13:30N 36°05' W 005°22'5 9.8
2018-Feb-10 13:01N 36°09' W 005°26'0 0.4
2018-Feb-10 12:12N 36°09' W 005°26'0 0.0
2018-Feb-10 11:58N 36°09' W 005°26'0 0.0
2018-Feb-10 11:25N 36°09' W 005°26'0 0.0
2018-Feb-10 08:30N 36°09' W 005°26'0 0.0
2018-Feb-10 07:34N 36°09' W 005°26'0 1.1
2018-Feb-10 07:30N 36°09' W 005°26'1 1.0
2018-Feb-10 07:00N 36°08' W 005°26'0 0.0
2018-Feb-10 06:30N 36°08' W 005°26'0 0.0
2018-Feb-10 05:59N 36°08' W 005°26'0 0.0
2018-Feb-10 05:29N 36°08' W 005°26'0 0.0
2018-Feb-10 04:59N 36°08' W 005°26'0 0.0
2018-Feb-10 04:29N 36°08' W 005°26'0 0.0
2018-Feb-10 03:59N 36°08' W 005°26'0 0.0
2018-Feb-10 03:29N 36°08' W 005°26'0 0.0
2018-Feb-10 02:59N 36°08' W 005°26'0 0.0
2018-Feb-10 02:26N 36°08' W 005°26'0 0.0
2018-Feb-10 01:59N 36°08' W 005°26'0 0.0
2018-Feb-10 01:29N 36°08' W 005°26'0 0.4
2018-Feb-10 01:00N 36°08' W 005°26'2 4.4
2018-Feb-10 00:30N 36°08' W 005°23'3 5.8
2018-Feb-10 00:00N 36°05' W 005°22'5 9.1
2018-Feb-09 23:30N 36°03' W 005°17'0 0.8
2018-Feb-09 23:00N 36°03' W 005°17'0 1.7
2018-Feb-09 22:46N 36°03' W 005°17'2 5.8
2018-Feb-09 22:30N 36°01' W 005°18'4 8.6
2018-Feb-09 22:00N 35°59' W 005°23'  

Dump ship's entire track history